sensor_id;sensor_type;location;lat;lon;timestamp;temperature;humidity
47845;DHT22;33605;48.822;8.796;2023-01-13T11:39:26;10.10;58.90
47845;DHT22;33605;48.822;8.796;2023-01-13T13:36:29;11.30;60.60
47845;DHT22;33605;48.822;8.796;2023-01-13T13:39:07;18.30;35.00
47845;DHT22;33605;48.822;8.796;2023-01-13T13:41:58;17.80;35.50
47845;DHT22;33605;48.822;8.796;2023-01-13T13:44:46;17.10;35.80
47845;DHT22;33605;48.822;8.796;2023-01-13T13:47:38;16.60;36.60
47845;DHT22;33605;48.822;8.796;2023-01-13T13:50:16;16.10;37.40
47845;DHT22;33605;48.822;8.796;2023-01-13T13:53:04;15.40;37.30
47845;DHT22;33605;48.822;8.796;2023-01-13T13:55:33;14.90;37.90
47845;DHT22;33605;48.822;8.796;2023-01-13T13:57:59;14.50;38.70
47845;DHT22;33605;48.822;8.796;2023-01-13T14:00:33;14.00;39.40
47845;DHT22;33605;48.822;8.796;2023-01-13T14:03:03;13.70;40.00
47845;DHT22;33605;48.822;8.796;2023-01-13T14:05:31;13.30;40.50
47845;DHT22;33605;48.822;8.796;2023-01-13T14:10:36;13.00;42.60
47845;DHT22;33605;48.822;8.796;2023-01-13T14:23:15;13.50;44.50
47845;DHT22;33605;48.822;8.796;2023-01-13T14:25:47;14.80;42.40
47845;DHT22;33605;48.822;8.796;2023-01-13T14:33:16;15.00;42.20
47845;DHT22;33605;48.822;8.796;2023-01-13T14:38:30;15.30;41.10
47845;DHT22;33605;48.822;8.796;2023-01-13T14:40:56;15.20;41.00
47845;DHT22;33605;48.822;8.796;2023-01-13T14:43:24;15.00;40.90
47845;DHT22;33605;48.822;8.796;2023-01-13T14:45:58;14.80;41.00
47845;DHT22;33605;48.822;8.796;2023-01-13T14:48:34;14.50;41.20
47845;DHT22;33605;48.822;8.796;2023-01-13T14:51:06;14.30;41.70
47845;DHT22;33605;48.822;8.796;2023-01-13T14:53:38;14.00;41.90
47845;DHT22;33605;48.822;8.796;2023-01-13T15:05:37;12.80;43.30
47845;DHT22;33605;48.822;8.796;2023-01-13T15:10:44;12.30;44.00
47845;DHT22;33605;48.822;8.796;2023-01-13T15:13:24;12.20;44.80
47845;DHT22;33605;48.822;8.796;2023-01-13T15:15:52;12.10;64.40
47845;DHT22;33605;48.822;8.796;2023-01-13T15:18:18;12.00;46.30
47845;DHT22;33605;48.822;8.796;2023-01-13T15:20:43;12.10;46.70
47845;DHT22;33605;48.822;8.796;2023-01-13T15:23:10;12.10;47.10
47845;DHT22;33605;48.822;8.796;2023-01-13T15:25:38;12.30;47.40
47845;DHT22;33605;48.822;8.796;2023-01-13T15:28:05;12.30;46.80
47845;DHT22;33605;48.822;8.796;2023-01-13T15:30:32;12.40;46.60
47845;DHT22;33605;48.822;8.796;2023-01-13T15:32:58;12.40;46.30
47845;DHT22;33605;48.822;8.796;2023-01-13T15:35:26;12.40;46.30
47845;DHT22;33605;48.822;8.796;2023-01-13T15:37:54;12.40;46.10
47845;DHT22;33605;48.822;8.796;2023-01-13T15:40:31;12.30;45.90
47845;DHT22;33605;48.822;8.796;2023-01-13T15:42:56;12.20;46.10
47845;DHT22;33605;48.822;8.796;2023-01-13T15:45:41;12.10;46.20
47845;DHT22;33605;48.822;8.796;2023-01-13T15:48:26;12.00;46.10
47845;DHT22;33605;48.822;8.796;2023-01-13T15:50:52;11.90;46.00
47845;DHT22;33605;48.822;8.796;2023-01-13T15:53:19;11.90;46.30
47845;DHT22;33605;48.822;8.796;2023-01-13T15:55:47;11.80;46.50
47845;DHT22;33605;48.822;8.796;2023-01-13T15:58:13;11.70;46.50
47845;DHT22;33605;48.822;8.796;2023-01-13T16:00:40;11.60;46.90
47845;DHT22;33605;48.822;8.796;2023-01-13T16:03:13;11.60;47.60
47845;DHT22;33605;48.822;8.796;2023-01-13T16:05:39;11.50;48.00
47845;DHT22;33605;48.822;8.796;2023-01-13T16:08:13;11.50;48.50
47845;DHT22;33605;48.822;8.796;2023-01-13T16:10:40;11.50;49.00
47845;DHT22;33605;48.822;8.796;2023-01-13T16:13:06;11.40;48.90
47845;DHT22;33605;48.822;8.796;2023-01-13T16:15:31;11.30;48.90
47845;DHT22;33605;48.822;8.796;2023-01-13T16:17:59;11.30;48.90
47845;DHT22;33605;48.822;8.796;2023-01-13T16:20:27;11.20;48.80
47845;DHT22;33605;48.822;8.796;2023-01-13T16:22:53;11.20;48.80
47845;DHT22;33605;48.822;8.796;2023-01-13T16:25:21;11.10;48.90
47845;DHT22;33605;48.822;8.796;2023-01-13T16:27:47;11.00;49.00
47845;DHT22;33605;48.822;8.796;2023-01-13T16:30:34;11.00;49.30
47845;DHT22;33605;48.822;8.796;2023-01-13T16:33:01;10.90;49.30
47845;DHT22;33605;48.822;8.796;2023-01-13T16:35:28;10.80;49.40
47845;DHT22;33605;48.822;8.796;2023-01-13T16:37:56;10.70;49.50
47845;DHT22;33605;48.822;8.796;2023-01-13T16:40:28;10.60;49.50
47845;DHT22;33605;48.822;8.796;2023-01-13T16:42:55;10.60;49.70
47845;DHT22;33605;48.822;8.796;2023-01-13T16:45:21;10.60;49.80
47845;DHT22;33605;48.822;8.796;2023-01-13T16:47:47;10.50;49.90
47845;DHT22;33605;48.822;8.796;2023-01-13T16:50:34;10.40;50.00
47845;DHT22;33605;48.822;8.796;2023-01-13T16:53:03;10.40;50.10
47845;DHT22;33605;48.822;8.796;2023-01-13T16:55:29;10.30;49.80
47845;DHT22;33605;48.822;8.796;2023-01-13T16:57:55;10.30;50.00
47845;DHT22;33605;48.822;8.796;2023-01-13T17:00:21;10.30;50.00
47845;DHT22;33605;48.822;8.796;2023-01-13T17:02:47;10.20;50.00
47845;DHT22;33605;48.822;8.796;2023-01-13T17:05:13;10.20;50.10
47845;DHT22;33605;48.822;8.796;2023-01-13T17:07:40;10.20;50.10
47845;DHT22;33605;48.822;8.796;2023-01-13T17:10:06;10.20;50.30
47845;DHT22;33605;48.822;8.796;2023-01-13T17:12:33;10.10;50.20
47845;DHT22;33605;48.822;8.796;2023-01-13T17:14:58;10.10;50.80
47845;DHT22;33605;48.822;8.796;2023-01-13T17:17:26;10.10;50.20
47845;DHT22;33605;48.822;8.796;2023-01-13T17:19:53;10.10;50.00
47845;DHT22;33605;48.822;8.796;2023-01-13T17:22:20;10.10;50.00
47845;DHT22;33605;48.822;8.796;2023-01-13T17:24:46;10.20;50.10
47845;DHT22;33605;48.822;8.796;2023-01-13T17:27:11;10.20;50.20
47845;DHT22;33605;48.822;8.796;2023-01-13T17:29:38;10.20;50.20
47845;DHT22;33605;48.822;8.796;2023-01-13T17:32:03;10.20;50.30
47845;DHT22;33605;48.822;8.796;2023-01-13T17:34:30;10.20;50.30
47845;DHT22;33605;48.822;8.796;2023-01-13T17:36:56;10.20;50.10
47845;DHT22;33605;48.822;8.796;2023-01-13T17:39:24;10.20;50.10
47845;DHT22;33605;48.822;8.796;2023-01-13T17:41:51;10.20;49.90
47845;DHT22;33605;48.822;8.796;2023-01-13T17:44:19;10.30;50.00
47845;DHT22;33605;48.822;8.796;2023-01-13T17:46:45;10.20;50.50
47845;DHT22;33605;48.822;8.796;2023-01-13T17:49:12;10.20;49.80
47845;DHT22;33605;48.822;8.796;2023-01-13T17:51:38;10.30;50.00
47845;DHT22;33605;48.822;8.796;2023-01-13T17:54:03;10.30;50.10
47845;DHT22;33605;48.822;8.796;2023-01-13T17:56:29;10.30;50.10
47845;DHT22;33605;48.822;8.796;2023-01-13T17:58:55;10.30;50.10
47845;DHT22;33605;48.822;8.796;2023-01-13T18:01:21;10.40;50.20
47845;DHT22;33605;48.822;8.796;2023-01-13T18:03:47;10.40;50.10
47845;DHT22;33605;48.822;8.796;2023-01-13T18:08:41;10.30;49.50
47845;DHT22;33605;48.822;8.796;2023-01-13T18:11:06;10.30;49.30
47845;DHT22;33605;48.822;8.796;2023-01-13T18:13:33;10.30;49.20
47845;DHT22;33605;48.822;8.796;2023-01-13T18:16:09;10.30;49.20
47845;DHT22;33605;48.822;8.796;2023-01-13T18:18:36;10.20;49.60
47845;DHT22;33605;48.822;8.796;2023-01-13T18:21:03;10.20;49.00
47845;DHT22;33605;48.822;8.796;2023-01-13T18:23:47;10.10;48.80
47845;DHT22;33605;48.822;8.796;2023-01-13T18:26:32;10.10;48.90
47845;DHT22;33605;48.822;8.796;2023-01-13T18:29:16;10.10;48.90
47845;DHT22;33605;48.822;8.796;2023-01-13T18:31:43;10.00;48.90
47845;DHT22;33605;48.822;8.796;2023-01-13T18:34:09;9.90;50.00
47845;DHT22;33605;48.822;8.796;2023-01-13T18:36:35;9.90;50.20
47845;DHT22;33605;48.822;8.796;2023-01-13T18:39:00;9.90;50.30
47845;DHT22;33605;48.822;8.796;2023-01-13T18:41:28;9.80;50.40
47845;DHT22;33605;48.822;8.796;2023-01-13T18:44:12;9.80;50.50
47845;DHT22;33605;48.822;8.796;2023-01-13T18:46:38;9.80;50.60
47845;DHT22;33605;48.822;8.796;2023-01-13T18:49:04;9.70;50.60
47845;DHT22;33605;48.822;8.796;2023-01-13T18:51:29;9.70;50.80
47845;DHT22;33605;48.822;8.796;2023-01-13T18:53:55;9.70;50.80
47845;DHT22;33605;48.822;8.796;2023-01-13T18:56:20;9.70;50.90
47845;DHT22;33605;48.822;8.796;2023-01-13T18:58:46;9.70;50.90
47845;DHT22;33605;48.822;8.796;2023-01-13T19:01:24;9.60;50.60
47845;DHT22;33605;48.822;8.796;2023-01-13T19:04:13;9.60;50.70
47845;DHT22;33605;48.822;8.796;2023-01-13T19:06:40;9.50;50.80
47845;DHT22;33605;48.822;8.796;2023-01-13T19:09:14;9.60;51.00
47845;DHT22;33605;48.822;8.796;2023-01-13T19:11:40;9.50;51.00
47845;DHT22;33605;48.822;8.796;2023-01-13T19:14:07;9.50;51.20
47845;DHT22;33605;48.822;8.796;2023-01-13T19:16:32;9.50;51.20
47845;DHT22;33605;48.822;8.796;2023-01-13T19:18:59;9.50;51.30
47845;DHT22;33605;48.822;8.796;2023-01-13T19:21:25;9.50;51.30
47845;DHT22;33605;48.822;8.796;2023-01-13T19:23:55;9.50;51.30
47845;DHT22;33605;48.822;8.796;2023-01-13T19:26:21;9.50;51.40
47845;DHT22;33605;48.822;8.796;2023-01-13T19:28:46;9.50;51.40
47845;DHT22;33605;48.822;8.796;2023-01-13T19:31:13;9.50;51.40
47845;DHT22;33605;48.822;8.796;2023-01-13T19:33:41;9.60;51.60
47845;DHT22;33605;48.822;8.796;2023-01-13T19:36:07;9.50;51.90
47845;DHT22;33605;48.822;8.796;2023-01-13T19:38:35;9.50;52.10
47845;DHT22;33605;48.822;8.796;2023-01-13T19:41:02;9.60;52.30
47845;DHT22;33605;48.822;8.796;2023-01-13T19:43:31;9.60;52.30
47845;DHT22;33605;48.822;8.796;2023-01-13T19:46:16;9.60;52.20
47845;DHT22;33605;48.822;8.796;2023-01-13T19:48:42;9.70;52.30
47845;DHT22;33605;48.822;8.796;2023-01-13T19:51:08;9.70;52.30
47845;DHT22;33605;48.822;8.796;2023-01-13T19:53:34;9.60;52.30
47845;DHT22;33605;48.822;8.796;2023-01-13T19:56:00;9.70;52.40
47845;DHT22;33605;48.822;8.796;2023-01-13T19:58:26;9.70;52.50
47845;DHT22;33605;48.822;8.796;2023-01-13T20:00:54;9.80;52.50
47845;DHT22;33605;48.822;8.796;2023-01-13T20:03:23;9.70;52.40
47845;DHT22;33605;48.822;8.796;2023-01-13T20:05:53;9.70;52.40
47845;DHT22;33605;48.822;8.796;2023-01-13T20:08:20;9.70;52.40
47845;DHT22;33605;48.822;8.796;2023-01-13T20:10:47;9.70;52.50
47845;DHT22;33605;48.822;8.796;2023-01-13T20:13:13;9.80;52.50
47845;DHT22;33605;48.822;8.796;2023-01-13T20:15:39;9.80;52.50
47845;DHT22;33605;48.822;8.796;2023-01-13T20:18:05;9.70;52.20
47845;DHT22;33605;48.822;8.796;2023-01-13T20:20:31;9.80;51.90
47845;DHT22;33605;48.822;8.796;2023-01-13T20:22:57;9.80;51.80
47845;DHT22;33605;48.822;8.796;2023-01-13T20:25:24;9.80;51.80
47845;DHT22;33605;48.822;8.796;2023-01-13T20:27:50;9.80;51.50
47845;DHT22;33605;48.822;8.796;2023-01-13T20:30:17;9.80;51.40
47845;DHT22;33605;48.822;8.796;2023-01-13T20:32:44;9.80;51.40
47845;DHT22;33605;48.822;8.796;2023-01-13T20:35:10;9.80;51.20
47845;DHT22;33605;48.822;8.796;2023-01-13T20:37:36;9.90;51.10
47845;DHT22;33605;48.822;8.796;2023-01-13T20:40:04;9.90;50.90
47845;DHT22;33605;48.822;8.796;2023-01-13T20:42:30;9.90;50.70
47845;DHT22;33605;48.822;8.796;2023-01-13T20:44:59;9.90;50.60
47845;DHT22;33605;48.822;8.796;2023-01-13T20:47:25;9.80;50.40
47845;DHT22;33605;48.822;8.796;2023-01-13T20:49:51;9.80;51.00
47845;DHT22;33605;48.822;8.796;2023-01-13T20:52:18;9.80;51.60
47845;DHT22;33605;48.822;8.796;2023-01-13T20:54:43;9.90;52.10
47845;DHT22;33605;48.822;8.796;2023-01-13T20:57:09;9.80;52.10
47845;DHT22;33605;48.822;8.796;2023-01-13T20:59:36;9.90;52.20
47845;DHT22;33605;48.822;8.796;2023-01-13T21:02:09;9.90;52.30
47845;DHT22;33605;48.822;8.796;2023-01-13T21:04:35;9.80;52.50
47845;DHT22;33605;48.822;8.796;2023-01-13T21:07:01;9.80;52.50
47845;DHT22;33605;48.822;8.796;2023-01-13T21:09:29;9.80;52.70
47845;DHT22;33605;48.822;8.796;2023-01-13T21:11:55;9.80;52.80
47845;DHT22;33605;48.822;8.796;2023-01-13T21:14:39;9.80;52.90
47845;DHT22;33605;48.822;8.796;2023-01-13T21:17:23;9.80;52.90
47845;DHT22;33605;48.822;8.796;2023-01-13T21:20:10;9.70;52.90
47845;DHT22;33605;48.822;8.796;2023-01-13T21:22:35;9.70;53.10
47845;DHT22;33605;48.822;8.796;2023-01-13T21:25:02;9.60;53.20
47845;DHT22;33605;48.822;8.796;2023-01-13T21:27:29;9.50;53.60
47845;DHT22;33605;48.822;8.796;2023-01-13T21:29:55;9.40;54.00
47845;DHT22;33605;48.822;8.796;2023-01-13T21:32:21;9.30;54.30
47845;DHT22;33605;48.822;8.796;2023-01-13T21:34:46;9.30;54.70
47845;DHT22;33605;48.822;8.796;2023-01-13T21:37:12;9.20;55.10
47845;DHT22;33605;48.822;8.796;2023-01-13T21:39:39;9.10;55.40
47845;DHT22;33605;48.822;8.796;2023-01-13T21:42:05;9.20;55.90
47845;DHT22;33605;48.822;8.796;2023-01-13T21:44:49;9.10;55.90
47845;DHT22;33605;48.822;8.796;2023-01-13T21:47:33;9.10;56.00
47845;DHT22;33605;48.822;8.796;2023-01-13T21:50:16;9.00;56.20
47845;DHT22;33605;48.822;8.796;2023-01-13T21:52:42;9.00;56.60
47845;DHT22;33605;48.822;8.796;2023-01-13T21:55:10;9.00;57.00
47845;DHT22;33605;48.822;8.796;2023-01-13T22:00:16;8.90;57.10
47845;DHT22;33605;48.822;8.796;2023-01-13T22:02:42;8.90;57.10
47845;DHT22;33605;48.822;8.796;2023-01-13T22:05:10;8.80;57.10
47845;DHT22;33605;48.822;8.796;2023-01-13T22:07:37;8.80;57.20
47845;DHT22;33605;48.822;8.796;2023-01-13T22:10:04;8.80;57.30
47845;DHT22;33605;48.822;8.796;2023-01-13T22:12:30;8.80;57.40
47845;DHT22;33605;48.822;8.796;2023-01-13T22:14:57;8.80;57.50
47845;DHT22;33605;48.822;8.796;2023-01-13T22:17:25;8.80;57.60
47845;DHT22;33605;48.822;8.796;2023-01-13T22:19:53;8.80;57.70
47845;DHT22;33605;48.822;8.796;2023-01-13T22:22:20;8.80;57.70
47845;DHT22;33605;48.822;8.796;2023-01-13T22:24:47;8.90;58.00
47845;DHT22;33605;48.822;8.796;2023-01-13T22:27:19;8.90;58.00
47845;DHT22;33605;48.822;8.796;2023-01-13T22:29:46;8.90;58.00
47845;DHT22;33605;48.822;8.796;2023-01-13T22:32:12;8.90;58.10
47845;DHT22;33605;48.822;8.796;2023-01-13T22:34:37;8.90;58.00
47845;DHT22;33605;48.822;8.796;2023-01-13T22:37:03;8.90;58.00
47845;DHT22;33605;48.822;8.796;2023-01-13T22:39:29;9.00;58.10
47845;DHT22;33605;48.822;8.796;2023-01-13T22:41:55;9.00;58.10
47845;DHT22;33605;48.822;8.796;2023-01-13T22:44:21;9.00;58.00
47845;DHT22;33605;48.822;8.796;2023-01-13T22:46:46;9.00;58.60
47845;DHT22;33605;48.822;8.796;2023-01-13T22:49:13;9.00;57.80
47845;DHT22;33605;48.822;8.796;2023-01-13T22:51:39;9.10;57.80
47845;DHT22;33605;48.822;8.796;2023-01-13T22:54:05;9.10;57.60
47845;DHT22;33605;48.822;8.796;2023-01-13T22:56:31;9.10;57.60
47845;DHT22;33605;48.822;8.796;2023-01-13T22:58:59;9.10;57.70
47845;DHT22;33605;48.822;8.796;2023-01-13T23:01:27;9.10;57.80
47845;DHT22;33605;48.822;8.796;2023-01-13T23:03:54;9.20;57.80
47845;DHT22;33605;48.822;8.796;2023-01-13T23:06:21;9.10;57.70
47845;DHT22;33605;48.822;8.796;2023-01-13T23:08:48;9.10;57.60
47845;DHT22;33605;48.822;8.796;2023-01-13T23:11:15;9.10;57.70
47845;DHT22;33605;48.822;8.796;2023-01-13T23:13:41;9.10;57.70
47845;DHT22;33605;48.822;8.796;2023-01-13T23:16:10;9.10;57.60
47845;DHT22;33605;48.822;8.796;2023-01-13T23:18:37;9.10;57.60
47845;DHT22;33605;48.822;8.796;2023-01-13T23:21:08;9.10;57.40
47845;DHT22;33605;48.822;8.796;2023-01-13T23:23:35;9.10;57.50
47845;DHT22;33605;48.822;8.796;2023-01-13T23:26:01;9.00;57.30
47845;DHT22;33605;48.822;8.796;2023-01-13T23:28:27;9.10;57.40
47845;DHT22;33605;48.822;8.796;2023-01-13T23:30:52;9.10;57.40
47845;DHT22;33605;48.822;8.796;2023-01-13T23:33:19;9.00;57.30
47845;DHT22;33605;48.822;8.796;2023-01-13T23:35:59;9.00;57.20
47845;DHT22;33605;48.822;8.796;2023-01-13T23:38:25;9.00;57.20
47845;DHT22;33605;48.822;8.796;2023-01-13T23:40:50;9.00;57.30
47845;DHT22;33605;48.822;8.796;2023-01-13T23:43:16;9.00;57.30
47845;DHT22;33605;48.822;8.796;2023-01-13T23:45:42;9.00;57.30
47845;DHT22;33605;48.822;8.796;2023-01-13T23:48:08;8.90;57.20
47845;DHT22;33605;48.822;8.796;2023-01-13T23:50:34;8.90;57.20
47845;DHT22;33605;48.822;8.796;2023-01-13T23:52:59;8.90;57.20
47845;DHT22;33605;48.822;8.796;2023-01-13T23:55:25;8.90;57.20
47845;DHT22;33605;48.822;8.796;2023-01-13T23:57:51;8.90;57.20
